createdAt,value
2019-02-27T00:02:07.901Z,35.13
2019-02-27T00:04:39.702Z,35.40
2019-02-27T00:07:09.361Z,34.73
2019-02-27T00:09:38.865Z,34.13
2019-02-27T00:12:08.221Z,35.33
2019-02-27T00:14:37.646Z,34.78
2019-02-27T00:17:08.293Z,33.78
2019-02-27T00:19:37.796Z,36.08
2019-02-27T00:22:07.306Z,34.10
2019-02-27T00:24:36.713Z,34.10
2019-02-27T00:27:06.161Z,36.08
2019-02-27T00:29:35.673Z,34.05
2019-02-27T00:32:05.515Z,32.95
2019-02-27T00:34:34.965Z,34.27
2019-02-27T00:37:04.324Z,33.33
2019-02-27T00:39:33.827Z,34.30
2019-02-27T00:42:03.210Z,33.67
2019-02-27T00:44:34.739Z,32.67
2019-02-27T00:47:04.288Z,33.18
2019-02-27T00:49:34.805Z,33.35
2019-02-27T00:52:04.309Z,32.00
2019-02-27T00:54:33.748Z,31.02
2019-02-27T00:57:03.227Z,30.32
2019-02-27T00:59:33.219Z,30.72
2019-02-27T01:02:03.124Z,30.65
2019-02-27T01:04:34.963Z,32.10
2019-02-27T01:07:03.621Z,28.13
2019-02-27T01:09:33.039Z,27.52
2019-02-27T01:12:02.538Z,29.30
2019-02-27T01:14:36.943Z,30.37
2019-02-27T01:17:04.177Z,30.03
2019-02-27T01:19:38.338Z,27.60
2019-02-27T01:22:05.373Z,26.90
2019-02-27T01:24:34.724Z,28.87
2019-02-27T01:27:04.625Z,28.42
2019-02-27T01:29:34.720Z,27.50
2019-02-27T01:32:04.215Z,28.83
2019-02-27T01:34:33.635Z,28.05
2019-02-27T01:37:03.013Z,26.97
2019-02-27T01:39:32.359Z,28.32
2019-02-27T01:42:01.716Z,28.42
2019-02-27T01:44:31.221Z,28.83
2019-02-27T01:47:02.284Z,27.15
2019-02-27T01:49:31.625Z,29.13
2019-02-27T01:52:02.068Z,26.82
2019-02-27T01:54:31.620Z,27.27
2019-02-27T01:57:02.931Z,29.15
2019-02-27T01:59:32.045Z,27.93
2019-02-27T02:02:03.507Z,26.68
2019-02-27T02:04:33.613Z,26.25
2019-02-27T02:07:04.076Z,27.15
2019-02-27T02:09:36.376Z,27.53
2019-02-27T02:12:18.145Z,26.87
2019-02-27T02:14:54.458Z,27.37
2019-02-27T02:17:45.126Z,26.62
2019-02-27T02:20:36.866Z,25.92
2019-02-27T02:23:15.161Z,24.55
2019-02-27T02:26:01.878Z,23.52
2019-02-27T02:28:48.229Z,25.52
2019-02-27T02:31:33.128Z,25.52
2019-02-27T02:34:27.677Z,24.43
2019-02-27T02:39:54.697Z,24.35
2019-02-27T02:42:46.241Z,25.10
2019-02-27T02:45:33.814Z,24.92
2019-02-27T02:48:21.431Z,25.08
2019-02-27T02:51:21.398Z,25.57
2019-02-27T02:54:22.543Z,25.55
2019-02-27T02:57:04.945Z,24.27
2019-02-27T02:59:49.392Z,24.25
2019-02-27T03:02:36.768Z,24.25
2019-02-27T03:08:05.432Z,25.43
2019-02-27T03:10:42.575Z,24.45
2019-02-27T03:13:14.919Z,24.77
2019-02-27T03:15:47.372Z,26.10
2019-02-27T03:18:39.278Z,23.92
2019-02-27T03:21:33.028Z,23.73
2019-02-27T03:24:11.495Z,23.87
2019-02-27T03:26:43.934Z,22.60
2019-02-27T03:29:40.222Z,22.95
2019-02-27T03:32:21.520Z,22.70
2019-02-27T03:35:11.872Z,22.60
2019-02-27T03:37:49.907Z,20.27
2019-02-27T03:43:45.665Z,22.20
2019-02-27T03:46:42.627Z,22.37
2019-02-27T03:49:30.056Z,21.95
2019-02-27T03:52:20.763Z,24.15
2019-02-27T03:55:04.761Z,22.80
2019-02-27T04:00:23.895Z,22.80
2019-02-27T04:02:56.328Z,23.62
2019-02-27T04:05:57.768Z,22.62
2019-02-27T04:08:35.957Z,21.48
2019-02-27T04:13:54.439Z,20.48
2019-02-27T04:16:28.814Z,19.35
2019-02-27T04:18:55.035Z,22.45
2019-02-27T04:21:25.351Z,20.68
2019-02-27T04:23:57.120Z,20.77
2019-02-27T04:26:28.046Z,21.23
2019-02-27T04:28:57.423Z,20.43
2019-02-27T04:31:29.455Z,22.00
2019-02-27T04:34:00.350Z,20.90
2019-02-27T04:36:28.881Z,21.52
2019-02-27T04:39:00.025Z,20.92
2019-02-27T04:41:29.297Z,22.35
2019-02-27T04:43:58.649Z,20.80
2019-02-27T04:46:28.083Z,21.70
2019-02-27T04:48:57.447Z,21.85
2019-02-27T04:51:26.796Z,21.80
2019-02-27T04:53:56.148Z,21.33
2019-02-27T04:56:25.519Z,22.52
2019-02-27T04:58:54.956Z,21.73
2019-02-27T05:01:24.404Z,22.27
2019-02-27T05:03:53.860Z,22.37
2019-02-27T05:06:23.212Z,21.15
2019-02-27T05:08:52.588Z,21.50
2019-02-27T05:11:21.931Z,22.13
2019-02-27T05:13:54.040Z,22.70
2019-02-27T05:16:22.375Z,22.07
2019-02-27T05:18:51.721Z,20.97
2019-02-27T05:21:21.068Z,22.67
2019-02-27T05:23:50.427Z,20.88
2019-02-27T05:26:19.810Z,20.27
2019-02-27T05:28:49.180Z,23.27
2019-02-27T05:31:19.159Z,21.42
2019-02-27T05:33:48.588Z,22.32
2019-02-27T05:36:17.945Z,22.73
2019-02-27T05:38:47.395Z,20.52
2019-02-27T05:41:16.742Z,21.33
2019-02-27T05:43:48.460Z,21.65
2019-02-27T05:46:17.580Z,21.33
2019-02-27T05:48:46.985Z,19.23
2019-02-27T05:51:16.403Z,19.67
2019-02-27T05:53:45.786Z,20.72
2019-02-27T05:56:16.825Z,21.45
2019-02-27T05:58:46.271Z,21.15
2019-02-27T06:01:15.626Z,21.00
2019-02-27T06:03:45.008Z,21.42
2019-02-27T06:06:15.459Z,19.60
2019-02-27T06:08:44.852Z,20.92
2019-02-27T06:11:14.204Z,22.15
2019-02-27T06:13:45.015Z,20.95
2019-02-27T06:16:16.204Z,21.63
2019-02-27T06:18:45.580Z,21.03
2019-02-27T06:21:16.379Z,21.57
2019-02-27T06:23:47.114Z,22.17
2019-02-27T06:26:18.957Z,22.73
2019-02-27T06:28:48.370Z,22.73
2019-02-27T06:31:17.724Z,21.85
2019-02-27T06:33:47.082Z,19.90
2019-02-27T06:36:16.522Z,22.67
2019-02-27T06:38:45.870Z,22.87
2019-02-27T06:41:18.140Z,21.97
2019-02-27T06:43:47.502Z,21.80
2019-02-27T06:46:19.898Z,22.30
2019-02-27T06:48:48.566Z,20.30
2019-02-27T06:51:17.995Z,21.30
2019-02-27T06:53:47.368Z,22.87
2019-02-27T06:56:16.764Z,22.50
2019-02-27T06:58:47.605Z,22.95
2019-02-27T07:01:17.231Z,22.47
2019-02-27T07:03:46.593Z,22.73
2019-02-27T07:06:16.410Z,22.13
2019-02-27T07:08:46.173Z,23.73
2019-02-27T07:11:17.192Z,22.30
2019-02-27T07:13:46.641Z,23.57
2019-02-27T07:16:20.472Z,24.05
2019-02-27T07:18:49.357Z,24.05
2019-02-27T07:21:18.702Z,21.70
2019-02-27T07:23:48.094Z,23.15
2019-02-27T07:26:21.102Z,23.38
2019-02-27T07:28:50.448Z,23.95
2019-02-27T07:31:19.878Z,24.13
2019-02-27T07:33:51.621Z,25.57
2019-02-27T07:36:21.113Z,25.03
2019-02-27T07:38:50.541Z,23.57
2019-02-27T07:41:22.867Z,24.47
2019-02-27T07:43:52.251Z,24.18
2019-02-27T07:46:22.404Z,25.90
2019-02-27T07:48:56.390Z,26.80
2019-02-27T07:51:23.929Z,26.93
2019-02-27T07:53:54.512Z,27.95
2019-02-27T07:56:24.098Z,26.95
2019-02-27T07:58:53.485Z,27.85
2019-02-27T08:01:23.661Z,26.95
2019-02-27T08:03:53.586Z,25.97
2019-02-27T08:06:23.701Z,23.50
2019-02-27T08:08:57.003Z,23.98
2019-02-27T08:11:26.372Z,22.27
2019-02-27T08:13:55.503Z,22.60
2019-02-27T08:16:24.877Z,23.45
2019-02-27T08:18:54.256Z,22.90
2019-02-27T08:21:23.634Z,22.32
2019-02-27T08:23:53.068Z,22.32
2019-02-27T08:26:22.490Z,21.07
2019-02-27T08:28:51.855Z,22.13
2019-02-27T08:31:21.222Z,21.65
2019-02-27T08:33:52.258Z,20.97
2019-02-27T08:36:21.760Z,20.83
2019-02-27T08:38:51.091Z,21.57
2019-02-27T08:41:20.534Z,20.53
2019-02-27T08:43:49.896Z,22.10
2019-02-27T08:46:19.258Z,20.35
2019-02-27T08:48:50.183Z,19.25
2019-02-27T08:51:19.699Z,20.37
2019-02-27T08:53:49.052Z,19.73
2019-02-27T08:56:18.412Z,18.42
2019-02-27T08:58:47.793Z,16.42
2019-02-27T09:01:19.041Z,17.60
2019-02-27T09:03:48.223Z,17.90
2019-02-27T09:06:18.811Z,17.95
2019-02-27T09:08:48.173Z,16.32
2019-02-27T09:11:17.545Z,16.30
2019-02-27T09:13:46.896Z,16.85
2019-02-27T09:16:16.264Z,16.85
2019-02-27T09:18:45.638Z,17.17
2019-02-27T09:21:15.000Z,17.40
2019-02-27T09:23:44.426Z,18.52
2019-02-27T09:26:13.868Z,17.02
2019-02-27T09:28:44.546Z,16.55
2019-02-27T09:31:15.368Z,13.20
2019-02-27T09:33:45.804Z,14.18
2019-02-27T09:36:15.227Z,13.50
2019-02-27T09:38:45.228Z,12.53
2019-02-27T09:41:14.792Z,12.47
2019-02-27T09:43:44.141Z,10.68
2019-02-27T09:46:19.262Z,11.25
2019-02-27T09:48:45.881Z,10.43
2019-02-27T09:51:15.278Z,10.95
2019-02-27T09:53:44.676Z,11.35
2019-02-27T09:56:14.656Z,11.78
2019-02-27T09:58:45.525Z,10.90
2019-02-27T10:01:17.196Z,12.83
2019-02-27T10:03:46.656Z,12.33
2019-02-27T10:06:16.079Z,13.13
2019-02-27T10:08:45.536Z,13.53
2019-02-27T10:11:18.799Z,12.57
2019-02-27T10:13:46.119Z,14.43
2019-02-27T10:16:15.535Z,14.15
2019-02-27T10:18:44.896Z,13.30
2019-02-27T10:21:14.276Z,13.53
2019-02-27T10:23:43.719Z,13.70
2019-02-27T10:26:13.147Z,13.72
2019-02-27T10:28:44.033Z,13.72
2019-02-27T10:31:15.898Z,14.00
2019-02-27T10:33:45.266Z,14.60
2019-02-27T10:36:16.195Z,14.73
2019-02-27T10:38:46.840Z,14.23
2019-02-27T10:41:16.265Z,14.23
2019-02-27T10:43:45.627Z,14.68
2019-02-27T10:46:15.077Z,14.45
2019-02-27T10:48:46.920Z,14.85
2019-02-27T10:51:15.504Z,14.30
2019-02-27T10:53:44.858Z,14.10
2019-02-27T10:56:14.232Z,15.38
2019-02-27T10:58:45.023Z,14.75
2019-02-27T11:01:14.729Z,13.85
2019-02-27T11:03:44.133Z,14.80
2019-02-27T11:06:13.561Z,15.78
2019-02-27T11:08:43.239Z,15.03
2019-02-27T11:11:13.191Z,17.23
2019-02-27T11:13:43.887Z,16.13
2019-02-27T11:16:15.411Z,15.70
2019-02-27T11:18:44.442Z,16.70
2019-02-27T11:21:15.027Z,16.73
2019-02-27T11:23:44.372Z,15.58
2019-02-27T11:26:13.730Z,17.52
2019-02-27T11:28:47.566Z,17.27
2019-02-27T11:31:15.571Z,16.73
2019-02-27T11:33:45.079Z,16.57
2019-02-27T11:36:14.583Z,17.02
2019-02-27T11:38:43.966Z,18.02
2019-02-27T11:41:15.362Z,16.57
2019-02-27T11:43:44.459Z,18.07
2019-02-27T11:46:13.819Z,16.77
2019-02-27T11:48:47.501Z,16.97
2019-02-27T11:51:17.522Z,16.93
2019-02-27T11:53:48.161Z,16.77
2019-02-27T11:56:20.246Z,16.57
2019-02-27T11:58:50.095Z,16.50
2019-02-27T12:01:22.126Z,17.25
2019-02-27T12:03:52.066Z,18.80
2019-02-27T12:06:21.488Z,18.80
2019-02-27T12:08:50.946Z,18.35
2019-02-27T12:11:20.367Z,19.62
2019-02-27T12:13:50.105Z,17.75
2019-02-27T12:16:19.494Z,17.45
2019-02-27T12:18:49.008Z,18.62
2019-02-27T12:21:19.152Z,19.67
2019-02-27T12:23:48.638Z,18.65
2019-02-27T12:26:18.079Z,17.07
2019-02-27T12:28:52.644Z,19.57
2019-02-27T12:31:21.740Z,19.57
2019-02-27T12:33:51.120Z,21.97
2019-02-27T12:36:23.317Z,19.80
2019-02-27T12:38:52.733Z,18.45
2019-02-27T12:41:22.227Z,18.85
2019-02-27T12:43:52.753Z,18.02
2019-02-27T12:46:22.864Z,19.85
2019-02-27T12:48:52.249Z,18.45
2019-02-27T12:51:21.609Z,17.95
2019-02-27T12:53:54.408Z,18.48
2019-02-27T12:56:22.097Z,18.30
2019-02-27T12:58:51.467Z,19.60
2019-02-27T13:01:20.933Z,20.25
2019-02-27T13:03:50.434Z,19.42
2019-02-27T13:06:19.842Z,20.85
2019-02-27T13:08:52.609Z,19.25
2019-02-27T13:11:20.345Z,19.57
2019-02-27T13:13:49.853Z,18.67
2019-02-27T13:16:19.264Z,18.77
2019-02-27T13:18:48.784Z,18.90
2019-02-27T13:21:20.696Z,19.77
2019-02-27T13:23:49.245Z,17.90
2019-02-27T13:26:18.618Z,19.27
2019-02-27T13:28:49.708Z,20.90
2019-02-27T13:31:19.254Z,19.10
2019-02-27T13:33:48.692Z,19.25
2019-02-27T13:36:18.182Z,18.25
2019-02-27T13:38:49.557Z,19.20
2019-02-27T13:41:18.740Z,19.57
2019-02-27T13:43:48.135Z,19.92
2019-02-27T13:46:17.496Z,20.05
2019-02-27T13:48:46.944Z,18.45
2019-02-27T13:51:16.301Z,20.20
2019-02-27T13:53:45.659Z,21.02
2019-02-27T13:56:16.174Z,18.45
2019-02-27T13:58:45.814Z,21.52
2019-02-27T14:01:15.167Z,20.43
2019-02-27T14:03:45.676Z,21.75
2019-02-27T14:06:15.680Z,18.80
2019-02-27T14:08:45.123Z,18.85
2019-02-27T14:11:14.488Z,19.90
2019-02-27T14:13:44.959Z,19.05
2019-02-27T14:16:14.407Z,19.23
2019-02-27T14:18:44.020Z,20.17
2019-02-27T14:21:14.966Z,19.93
2019-02-27T14:23:46.911Z,21.07
2019-02-27T14:26:15.704Z,22.70
2019-02-27T14:28:45.201Z,20.52
2019-02-27T14:31:14.563Z,20.80
2019-02-27T14:33:44.087Z,20.72
2019-02-27T14:36:13.512Z,20.08
2019-02-27T14:38:42.867Z,19.92
2019-02-27T14:41:14.354Z,19.92
2019-02-27T14:43:43.315Z,20.27
2019-02-27T14:46:12.865Z,20.32
2019-02-27T14:48:42.341Z,17.73
2019-02-27T14:51:11.838Z,18.07
2019-02-27T14:53:41.190Z,18.32
2019-02-27T14:56:10.637Z,18.52
2019-02-27T14:58:40.066Z,17.77
2019-02-27T15:01:11.833Z,17.93
2019-02-27T15:03:42.330Z,17.65
2019-02-27T15:06:11.787Z,18.65
2019-02-27T15:08:41.246Z,19.35
2019-02-27T15:11:13.999Z,20.04
2019-02-27T15:13:41.696Z,22.83
2019-02-27T15:16:11.156Z,25.28
2019-02-27T15:18:40.690Z,25.72
2019-02-27T15:21:13.034Z,26.37
2019-02-27T15:23:41.296Z,27.60
2019-02-27T15:26:13.894Z,27.02
2019-02-27T15:28:41.928Z,27.13
2019-02-27T15:31:15.167Z,26.57
2019-02-27T15:33:44.610Z,27.40
2019-02-27T15:36:14.066Z,27.57
2019-02-27T15:38:46.162Z,28.07
2019-02-27T15:41:16.600Z,27.75
2019-02-27T15:43:54.655Z,29.57
2019-02-27T15:46:21.708Z,28.70
2019-02-27T15:48:48.472Z,27.30
2019-02-27T15:51:18.347Z,29.50
2019-02-27T15:53:49.984Z,28.75
2019-02-27T15:56:20.012Z,28.03
2019-02-27T15:58:49.493Z,27.93
2019-02-27T16:01:19.046Z,29.67
2019-02-27T16:03:48.469Z,31.95
2019-02-27T16:06:17.855Z,29.93
2019-02-27T16:08:47.231Z,30.32
2019-02-27T16:11:17.334Z,29.40
2019-02-27T16:13:46.954Z,30.85
2019-02-27T16:16:16.384Z,30.27
2019-02-27T16:18:45.749Z,31.50
2019-02-27T16:21:15.128Z,31.20
2019-02-27T16:23:44.812Z,31.02
2019-02-27T16:26:14.180Z,30.32
2019-02-27T16:28:46.083Z,32.23
2019-02-27T16:31:14.639Z,31.57
2019-02-27T16:33:44.084Z,30.77
2019-02-27T16:36:15.692Z,32.90
2019-02-27T16:38:44.529Z,31.27
2019-02-27T16:41:13.888Z,32.47
2019-02-27T16:43:47.733Z,32.05
2019-02-27T16:46:14.377Z,31.90
2019-02-27T16:48:43.737Z,31.93
2019-02-27T16:51:13.125Z,33.00
2019-02-27T16:53:42.481Z,31.70
2019-02-27T16:56:12.878Z,32.30
2019-02-27T16:58:42.399Z,33.10
2019-02-27T17:01:11.845Z,32.65
2019-02-27T17:03:41.205Z,33.33
2019-02-27T17:06:10.561Z,33.63
2019-02-27T17:08:42.938Z,33.10
2019-02-27T17:11:12.368Z,34.50
2019-02-27T17:13:41.734Z,33.73
2019-02-27T17:16:11.533Z,33.05
2019-02-27T17:18:42.038Z,32.77
2019-02-27T17:21:11.970Z,33.92
2019-02-27T17:23:45.382Z,35.10
2019-02-27T17:26:12.593Z,33.27
2019-02-27T17:28:42.029Z,34.35
2019-02-27T17:31:12.196Z,31.62
2019-02-27T17:33:42.287Z,32.35
2019-02-27T17:36:11.685Z,32.03
2019-02-27T17:38:41.138Z,31.90
2019-02-27T17:41:10.643Z,32.68
2019-02-27T17:43:40.774Z,34.67
2019-02-27T17:46:10.163Z,32.20
2019-02-27T17:48:39.797Z,33.63
2019-02-27T17:51:09.338Z,34.27
2019-02-27T17:53:38.695Z,34.98
2019-02-27T17:56:08.065Z,32.93
2019-02-27T17:58:38.028Z,34.65
2019-02-27T18:01:09.187Z,32.95
2019-02-27T18:03:41.507Z,33.93
2019-02-27T18:06:09.675Z,37.23
2019-02-27T18:08:39.135Z,35.92
2019-02-27T18:11:08.664Z,36.35
2019-02-27T18:13:38.022Z,36.53
2019-02-27T18:16:07.417Z,38.63
2019-02-27T18:18:36.876Z,38.53
2019-02-27T18:21:06.309Z,37.00
2019-02-27T18:23:35.765Z,36.42
2019-02-27T18:26:05.492Z,36.85
2019-02-27T18:28:35.925Z,36.60
2019-02-27T18:31:05.731Z,35.52
2019-02-27T18:33:35.226Z,36.88
2019-02-27T18:36:05.881Z,34.94
2019-02-27T18:38:35.575Z,37.35
2019-02-27T18:41:05.633Z,35.88
2019-02-27T18:43:35.111Z,37.60
2019-02-27T18:46:04.519Z,38.73
2019-02-27T18:48:34.750Z,35.78
2019-02-27T18:51:04.563Z,37.00
2019-02-27T18:53:34.146Z,36.38
2019-02-27T18:56:05.177Z,38.83
2019-02-27T18:58:34.605Z,38.53
2019-02-27T19:01:09.518Z,38.83
2019-02-27T19:03:37.107Z,39.80
2019-02-27T19:06:06.701Z,37.00
2019-02-27T19:08:36.136Z,38.30
2019-02-27T19:11:06.282Z,39.80
2019-02-27T19:13:36.822Z,38.17
2019-02-27T19:16:06.560Z,40.60
2019-02-27T19:18:38.498Z,40.92
2019-02-27T19:21:07.587Z,38.73
2019-02-27T19:23:37.147Z,39.67
2019-02-27T19:26:09.360Z,42.03
2019-02-27T19:28:38.717Z,39.88
2019-02-27T19:31:08.278Z,40.08
2019-02-27T19:33:37.788Z,40.45
2019-02-27T19:36:07.157Z,40.23
2019-02-27T19:38:36.559Z,39.73
2019-02-27T19:41:06.058Z,40.98
2019-02-27T19:43:35.617Z,42.30
2019-02-27T19:46:10.010Z,40.83
2019-02-27T19:48:40.010Z,39.73
2019-02-27T19:51:09.377Z,41.68
2019-02-27T19:53:39.614Z,40.70
2019-02-27T19:56:09.561Z,40.20
2019-02-27T19:58:39.088Z,41.15
2019-02-27T20:01:10.227Z,40.78
2019-02-27T20:03:39.681Z,40.90
2019-02-27T20:06:09.064Z,42.93
2019-02-27T20:08:44.347Z,41.53
2019-02-27T20:11:10.014Z,40.03
2019-02-27T20:13:39.515Z,40.20
2019-02-27T20:16:09.083Z,39.00
2019-02-27T20:18:40.582Z,40.30
2019-02-27T20:21:12.097Z,42.93
2019-02-27T20:23:41.564Z,42.65
2019-02-27T20:26:19.996Z,44.27
2019-02-27T20:28:46.982Z,43.45
2019-02-27T20:31:19.727Z,44.33
2019-02-27T20:33:49.309Z,43.73
2019-02-27T20:36:18.788Z,42.85
2019-02-27T20:38:50.735Z,42.88
2019-02-27T20:41:20.348Z,43.60
2019-02-27T20:43:49.975Z,42.23
2019-02-27T20:46:19.367Z,44.73
2019-02-27T20:48:48.727Z,44.58
2019-02-27T20:51:18.196Z,42.27
2019-02-27T20:53:47.697Z,43.87
2019-02-27T20:56:17.154Z,42.48
2019-02-27T20:58:51.113Z,41.88
2019-02-27T21:01:17.770Z,43.83
2019-02-27T21:03:47.305Z,44.00
2019-02-27T21:06:16.707Z,42.33
2019-02-27T21:08:46.075Z,44.27
2019-02-27T21:11:15.594Z,43.70
2019-02-27T21:13:49.372Z,43.05
2019-02-27T21:16:16.194Z,42.43
2019-02-27T21:18:45.707Z,40.85
2019-02-27T21:21:16.986Z,41.67
2019-02-27T21:23:46.373Z,39.87
2019-02-27T21:26:15.956Z,42.20
2019-02-27T21:28:45.608Z,42.23
2019-02-27T21:31:15.234Z,41.08
2019-02-27T21:33:45.728Z,42.30
2019-02-27T21:36:16.066Z,42.80
2019-02-27T21:38:50.310Z,41.55
2019-02-27T21:41:19.464Z,42.27
2019-02-27T21:43:49.069Z,39.73
2019-02-27T21:46:18.736Z,42.62
2019-02-27T21:48:51.283Z,39.20
2019-02-27T21:51:20.828Z,42.03
2019-02-27T21:53:51.589Z,42.37
2019-02-27T21:56:21.185Z,41.40
2019-02-27T21:58:50.811Z,42.65
2019-02-27T22:01:22.601Z,44.83
2019-02-27T22:03:52.273Z,46.83
2019-02-27T22:06:24.623Z,46.37
2019-02-27T22:08:54.290Z,44.58
2019-02-27T22:11:24.273Z,47.00
2019-02-27T22:13:55.247Z,45.67
2019-02-27T22:16:29.494Z,46.60
2019-02-27T22:18:56.330Z,46.13
2019-02-27T22:21:25.955Z,46.28
2019-02-27T22:23:57.266Z,44.50
2019-02-27T22:26:26.862Z,45.88
2019-02-27T22:28:56.509Z,49.10
2019-02-27T22:31:26.138Z,46.55
2019-02-27T22:33:56.201Z,48.15
2019-02-27T22:36:26.474Z,46.68
2019-02-27T22:38:59.884Z,48.20
2019-02-27T22:41:27.118Z,47.27
2019-02-27T22:43:56.608Z,48.13
2019-02-27T22:46:25.963Z,49.70
2019-02-27T22:48:55.331Z,49.13
2019-02-27T22:51:24.770Z,46.60
2019-02-27T22:53:54.139Z,48.25
2019-02-27T22:56:23.516Z,48.13
2019-02-27T22:58:52.880Z,47.80
2019-02-27T23:01:25.919Z,48.83
2019-02-27T23:03:57.913Z,44.33
2019-02-27T23:06:28.078Z,45.70
2019-02-27T23:08:57.448Z,47.23
2019-02-27T23:11:26.882Z,46.18
2019-02-27T23:13:56.249Z,49.70
2019-02-27T23:16:25.681Z,48.30
2019-02-27T23:18:55.122Z,46.02
2019-02-27T23:21:30.496Z,44.35
2019-02-27T23:23:59.973Z,45.63
2019-02-27T23:26:29.466Z,46.95
2019-02-27T23:28:58.816Z,44.50
2019-02-27T23:31:28.188Z,48.17
2019-02-27T23:33:57.636Z,46.23
2019-02-27T23:36:27.013Z,46.05
2019-02-27T23:38:56.416Z,48.65
2019-02-27T23:41:25.815Z,48.15
2019-02-27T23:43:55.292Z,46.77
2019-02-27T23:46:24.672Z,48.92
2019-02-27T23:48:54.033Z,49.33
2019-02-27T23:51:23.425Z,51.65
2019-02-27T23:53:52.935Z,50.55
2019-02-27T23:56:22.293Z,48.68
2019-02-27T23:58:54.809Z,49.67
